Flight Track Log - Related Links

Times and Time Zones

All times are in EDT time to prevent confusion due to time zone crossing. See the N762NC flight status page for this flight to view local times or setup timezone preferences in your user account.

Time Position Orientation Groundspeed Altitude Reporting Facility
EDT Latitude Longitude Course Direction KTS MPH feet Rate Location/Type
Thu 10:11:00 AM 35.9761 -86.5390 149° Southeast  Level Estimated
Thu 10:12:00 AM 35.9266 -86.4927 145° Southeast  Level Estimated
Thu 10:13:00 AM 35.8716 -86.4571 152° Southeast  Level FlightAware Approximate
Thu 10:14:00 AM 35.8166 -86.4215 152° Southeast  Level FlightAware Approximate
Thu 10:15:00 AM 35.7674 -86.3749 152° Southeast  Level Estimated
Thu 10:16:00 AM 35.7181 -86.3284 136° Southeast  Level Estimated
Thu 10:17:00 AM 35.6681 -86.2831 144° Southeast  Level FlightAware Approximate
Thu 10:18:00 AM 35.6188 -86.2366 136° Southeast  Level Estimated
Thu 10:19:00 AM 35.5710 -86.1880 140° Southeast  Level FlightAware Approximate
Thu 10:20:00 AM 35.5180 -86.1346 141° Southeast  Level FlightAware Approximate
Thu 10:21:00 AM 35.4698 -86.0865 141° Southeast  Level FlightAware Approximate
Thu 10:22:00 AM 35.4172 -86.0462 149° Southeast  Level FlightAware Approximate
Thu 10:23:00 AM 35.3645 -86.0060 148° Southeast  Level FlightAware Approximate
Thu 10:24:00 AM 35.3119 -85.9655 148° Southeast  Level FlightAware Approximate
Thu 10:25:00 AM 35.2593 -85.9251 148° Southeast  Level FlightAware Approximate
Thu 10:26:00 AM 35.2067 -85.8847 148° Southeast  Level FlightAware Approximate
Thu 10:27:00 AM 35.1541 -85.8444 148° Southeast  Level FlightAware Approximate
Thu 10:28:00 AM 35.1014 -85.8041 148° Southeast  Level FlightAware Approximate
Thu 10:29:00 AM 35.0488 -85.7639 148° Southeast  Level FlightAware Approximate
Thu 10:30:00 AM 34.9961 -85.7238 148° Southeast  Level FlightAware Approximate
Thu 10:31:00 AM 34.9435 -85.6837 148° Southeast  Level FlightAware Approximate
Thu 10:32:00 AM 34.8908 -85.6436 148° Southeast  Level FlightAware Approximate
Thu 10:33:00 AM 34.8381 -85.6036 148° Southeast  Level FlightAware Approximate
Thu 10:34:00 AM 34.7825 -85.5751 149° Southeast  Level FlightAware Approximate
Thu 10:35:00 AM 34.7292 -85.5363 149° Southeast  Level FlightAware Approximate
Thu 10:36:00 AM 34.6759 -85.4976 149° Southeast  Level FlightAware Approximate
Thu 10:37:00 AM 34.6226 -85.4589 149° Southeast  Level FlightAware Approximate
Thu 10:38:00 AM 34.5693 -85.4203 149° Southeast  Level FlightAware Approximate
Thu 10:39:00 AM 34.5160 -85.3817 149° Southeast  Level FlightAware Approximate
Thu 10:40:00 AM 34.4806 -85.3562 149° Southeast  Level FlightAware Approximate
Thu 10:41:00 AM 34.4453 -85.3307 149° Southeast  Level FlightAware Approximate
Thu 10:42:00 AM 34.4100 -85.3052 149° Southeast  Level FlightAware Approximate
Thu 10:43:00 AM 34.3746 -85.2797 149° Southeast  Level FlightAware Approximate
Thu 10:44:00 AM 34.3393 -85.2543 149° Southeast  Level FlightAware Approximate
Thu 10:45:00 AM 34.3042 -85.2282 148° Southeast  Level FlightAware Approximate
Thu 10:46:00 AM 34.2693 -85.2020 148° Southeast  Level FlightAware Approximate
Thu 10:47:00 AM 34.2339 -85.1766 149° Southeast  Level FlightAware Approximate
Thu 10:47:16 AM 36.1167 -86.6833 133° Southeast 154 177 1,400  Level Nashville TRACON
Thu 10:48:00 AM 34.1985 -85.1513 149° Southeast  Level FlightAware Approximate
Thu 10:48:10 AM 36.0500 -86.6833 180° South 224 258 2,800  Level Nashville TRACON
Thu 10:49:00 AM 34.1275 -85.0902 126° Southeast  Level FlightAware Approximate
Thu 10:49:10 AM 36.0000 -86.6667 165° South 240 276 4,600  Level Nashville TRACON
Thu 10:50:00 AM 34.0746 -85.0055 133° Southeast  Level FlightAware Approximate
Thu 10:50:37 AM 35.8842 -86.6522 174° South 293 337 8,000  Level Memphis Center
Thu 10:51:00 AM 34.0145 -84.9280 133° Southeast  Level FlightAware Approximate
Thu 10:51:37 AM 35.8078 -86.6097 156° South 288 331 10,300  Level Memphis Center
Thu 10:52:00 AM 33.9544 -84.8506 133° Southeast  Level FlightAware Approximate
Thu 10:52:37 AM 35.7211 -86.5700 160° South 305 351 11,600  Level Memphis Center
Thu 10:53:37 AM 35.6258 -86.5233 158° South 351 404 13,500 1,800 Climbing Memphis Center
Thu 10:54:37 AM 35.5431 -86.4711 153° Southeast 362 417 15,200 1,671 Climbing Memphis Center
Thu 10:55:57 AM 35.4211 -86.3528 142° Southeast 390 449 17,400 1,586 Climbing Atlanta Center
Thu 10:56:57 AM 35.3392 -86.2742 142° Southeast 412 474 18,900 1,550 Climbing Atlanta Center
Thu 10:57:57 AM 35.2511 -86.1853 140° Southeast 418 481 20,500 1,600 Climbing Atlanta Center
Thu 10:58:57 AM 35.1628 -86.0992 141° Southeast 418 481 22,100 1,700 Climbing Atlanta Center
Thu 10:59:57 AM 35.0744 -86.0108 141° Southeast 412 474 23,900 950 Climbing Atlanta Center
Thu 11:00:57 AM 34.9842 -85.9225 141° Southeast 417 480 24,000 50 Climbing Atlanta Center
Thu 11:01:57 AM 34.9039 -85.8369 139° Southeast 417 480 24,000  Level Atlanta Center
Thu 11:02:57 AM 34.8031 -85.7436 143° Southeast 417 480 24,000  Level Atlanta Center
Thu 11:03:57 AM 34.7103 -85.6558 142° Southeast 417 480 24,000  Level Atlanta Center
Thu 11:04:57 AM 34.6217 -85.5683 141° Southeast 417 480 24,000  Level Atlanta Center
Thu 11:05:57 AM 34.5331 -85.4761 139° Southeast 417 480 24,000 -1,050 Level Atlanta Center
Thu 11:06:57 AM 34.4442 -85.3939 143° Southeast 412 474 21,900 -2,200 Descending Atlanta Center
Thu 11:07:57 AM 34.3575 -85.3119 142° Southeast 412 474 19,600 -2,200 Descending Atlanta Center
Thu 11:08:57 AM 34.2769 -85.2328 141° Southeast 402 463 17,500 -2,100 Descending Atlanta Center
Thu 11:09:57 AM 34.1961 -85.1564 142° Southeast 384 442 15,400 -1,750 Descending Atlanta Center
Thu 11:10:57 AM 34.1258 -85.0753 136° Southeast 368 423 14,000 -650 Descending Atlanta Center
Thu 11:11:57 AM 34.0597 -84.9892 133° Southeast 356 410 14,100 -150 Climbing Atlanta Center
Thu 11:12:57 AM 33.9958 -84.8983 130° Southeast 351 404 13,700 -1,300 Descending Atlanta Center
Thu 11:13:57 AM 33.9339 -84.8125 131° Southeast 345 397 11,500 -1,350 Descending Atlanta Center
Thu 11:14:57 AM 33.8717 -84.7344 134° Southeast 340 391 11,000 -313 Descending Atlanta Center
Thu 11:15:33 AM 33.8333 -84.6833 132° Southeast 272 313 11,000  Level Atlanta TRACON
Thu 11:16:33 AM 33.7833 -84.6333 140° Southeast 250 288 11,000 50 Level Atlanta TRACON
Thu 11:17:33 AM 33.7333 -84.5667 132° Southeast 256 295 11,100 -550 Climbing Atlanta TRACON
Thu 11:18:33 AM 33.7333 -84.4833 90° East 256 295 9,900 -1,300 Descending Atlanta TRACON
Thu 11:19:33 AM 33.7333 -84.4000 90° East 257 296 8,500 -1,600 Descending Atlanta TRACON
Thu 11:20:33 AM 33.7333 -84.3167 90° East 239 275 6,700 -1,750 Descending Atlanta TRACON
Thu 11:21:33 AM 33.7167 -84.2500 107° East 237 273 5,000 -1,550 Descending Atlanta TRACON
Thu 11:22:33 AM 33.6667 -84.2500 180° South 213 245 3,600 -1,200 Descending Atlanta TRACON
Thu 11:23:33 AM 33.6500 -84.3000 248° West 162 186 2,600 -950 Descending Atlanta TRACON
Thu 11:24:33 AM 33.6500 -84.3667 270° West 150 173 1,700 -789 Descending Atlanta TRACON
Thu 11:25:27 AM 33.6500 -84.4000 270° West 144 166 1,100 -667 Descending Atlanta TRACON

Login

Don't have an account? Register now (free) for customized features, flight alerts, and more!